Latest Weather Observations for PORTABLE QFRI (Inglewood)

IDQ60801

Issued at 12:02 pm EST Monday 20 November 2017 (issued every 30 minutes, with the page automatically refreshed every 10 minutes)

About weather observations | Map of weather stations | Latest weather observations for QLD | Other Formats
Station Details ID: 250073 Name: PORTABLE QFRI (INGLEWOOD) Lat: -28.42 Lon: 151.10 Height: 286.0 m
Data from the previous 72 hours. | See also: Recent months for locations in Queensland
Date/Time
EST
Temp
°C
App
Temp
°C
Dew
Point
°C
Rel
Hum
%
Delta-T
°C
Wind Press
QNH
hPa
Press
MSL
hPa
Rain since
9am
mm
Dir  Spd
km/h
Gust
km/h
Spd
kts
Gust
kts
20/11:30am 25.6 22.1 7.1 30 9.9 E 15 20 8 11 - - 0.0
20/11:20am 25.4 22.1 6.5 30 10.0 ESE 13 19 7 10 - - 0.0
20/11:10am 25.0 21.1 7.2 32 9.5 ENE 17 22 9 12 - - 0.0
20/11:00am 24.7 20.5 7.3 33 9.3 ENE 19 24 10 13 - - 0.0
20/10:50am 25.0 21.2 7.7 33 9.3 E 17 22 9 12 - - 0.0
20/10:40am 24.6 21.3 8.1 35 8.9 ESE 15 22 8 12 - - 0.0
20/10:30am 24.4 21.7 9.1 37 8.4 ESE 13 19 7 10 - - 0.0
20/10:20am 23.8 21.0 8.4 37 8.3 E 13 24 7 13 - - 0.0
20/10:10am 23.8 20.2 8.5 37 8.3 E 17 19 9 10 - - 0.0
20/10:00am 23.6 19.6 8.4 37 8.2 ESE 19 22 10 12 - - 0.0
20/09:50am 23.6 21.0 9.2 40 7.9 E 13 22 7 12 - - 0.0
20/09:40am 23.2 19.1 8.6 39 7.9 E 20 28 11 15 - - 0.0
20/09:30am 23.0 18.9 8.8 40 7.7 E 20 24 11 13 - - 0.0
20/09:20am 23.1 20.2 9.7 42 7.4 ESE 15 20 8 11 - - 0.0
20/09:10am 22.8 19.0 8.9 41 7.5 ESE 19 22 10 12 - - 0.0
20/09:00am 22.7 18.7 9.1 42 7.4 E 20 26 11 14 - - 0.0
20/08:50am 22.1 18.2 9.4 44 6.9 E 20 24 11 13 - - 0.0
20/08:40am 21.9 18.2 9.4 45 6.8 E 19 22 10 12 - - 0.0
20/08:30am 21.9 18.5 9.2 44 6.9 ESE 17 20 9 11 - - 0.0
20/08:20am 21.7 18.4 9.6 46 6.6 E 17 19 9 10 - - 0.0
20/08:10am 21.3 18.0 9.4 46 6.4 ESE 17 22 9 12 - - 0.0
20/08:00am 20.6 18.2 10.2 51 5.7 ENE 13 15 7 8 - - 0.0
20/07:50am 20.2 17.9 10.4 53 5.4 E 13 15 7 8 - - 0.0
20/07:40am 19.6 18.3 11.3 58 4.6 E 9 13 5 7 - - 0.0
20/07:30am 18.9 18.1 11.7 63 4.0 E 7 9 4 5 - - 0.0
20/07:20am 18.7 17.9 11.7 64 3.9 ESE 7 9 4 5 - - 0.0
20/07:10am 18.9 18.8 12.2 65 3.8 ESE 4 7 2 4 - - 0.0
20/07:00am 18.3 19.2 12.8 70 3.1 CALM 0 2 0 1 - - 0.0
20/06:50am 17.7 18.3 13.1 74 2.6 NW 2 4 1 2 - - 0.0
20/06:40am 17.2 17.7 12.9 76 2.4 ENE 2 2 1 1 - - 0.0
20/06:30am 17.1 17.9 12.7 75 2.5 CALM 0 2 0 1 - - 0.0
20/06:20am 16.3 17.0 12.2 77 2.3 CALM 0 0 0 0 - - 0.0
20/06:10am 15.3 15.8 11.6 78 2.0 CALM 0 0 0 0 - - 0.0
20/06:00am 14.2 14.6 11.2 82 1.6 CALM 0 0 0 0 - - 0.0
20/05:50am 13.4 13.7 11.0 85 1.3 CALM 0 0 0 0 - - 0.0
20/05:40am 12.7 12.9 10.6 87 1.1 CALM 0 2 0 1 - - 0.0
20/05:30am 12.1 11.9 10.4 89 0.9 NW 2 4 1 2 - - 0.0
20/05:20am 11.5 11.5 9.9 90 0.8 CALM 0 0 0 0 - - 0.0
20/05:10am 11.0 10.6 9.8 92 0.6 NW 2 4 1 2 - - 0.0
20/05:00am 10.7 10.3 9.7 93 0.5 NW 2 4 1 2 - - 0.0
20/04:50am 10.9 10.5 9.7 92 0.6 N 2 4 1 2 - - 0.0
20/04:40am 11.1 10.0 10.1 94 0.5 NNE 6 6 3 3 - - 0.0
20/04:30am 11.7 11.0 10.1 90 0.8 E 4 6 2 3 - - 0.0
20/04:20am 12.1 11.0 10.7 91 0.7 ESE 7 7 4 4 - - 0.0
20/04:10am 11.6 10.7 10.7 94 0.5 ESE 6 7 3 4 - - 0.0
20/04:00am 11.2 11.4 10.4 95 0.4 CALM 0 2 0 1 - - 0.0
20/03:50am 11.2 10.9 10.1 93 0.6 NNW 2 4 1 2 - - 0.0
20/03:40am 11.4 11.5 10.1 92 0.7 CALM 0 4 0 2 - - 0.0
20/03:30am 11.7 11.4 10.2 90 0.8 NE 2 4 1 2 - - 0.0
20/03:20am 11.9 12.1 10.5 91 0.7 CALM 0 4 0 2 - - 0.0
20/03:10am 12.6 12.5 10.8 89 1.0 SSW 2 4 1 2 - - 0.0
20/03:00am 13.3 12.9 11.0 86 1.2 SE 4 6 2 3 - - 0.0
20/02:50am 12.9 12.1 10.9 88 1.1 SE 6 6 3 3 - - 0.0
20/02:40am 12.8 13.1 10.9 88 1.0 CALM 0 4 0 2 - - 0.0
20/02:30am 12.9 13.3 11.1 89 1.0 CALM 0 0 0 0 - - 0.0
20/02:20am 13.2 12.8 11.0 86 1.2 NW 4 6 2 3 - - 0.0
20/02:10am 12.8 12.8 11.0 89 1.0 NW 2 6 1 3 - - 0.0
20/02:00am 12.7 12.6 10.9 89 1.0 ESE 2 4 1 2 - - 0.0
20/01:50am 13.0 12.2 10.9 87 1.1 ENE 6 7 3 4 - - 0.0
20/01:40am 13.9 13.1 11.2 84 1.5 ENE 6 7 3 4 - - 0.0
20/01:30am 13.9 13.0 11.4 85 1.3 E 7 7 4 4 - - 0.0
20/01:20am 14.0 13.2 11.2 83 1.5 E 6 7 3 4 - - 0.0
20/01:10am 13.9 13.1 11.2 84 1.5 E 6 7 3 4 - - 0.0
20/01:00am 14.4 13.7 11.4 82 1.6 E 6 6 3 3 - - 0.0
20/12:50am 14.6 13.8 11.0 79 1.9 E 6 6 3 3 - - 0.0
20/12:40am 14.2 13.4 11.2 82 1.6 ESE 6 7 3 4 - - 0.0
20/12:30am 14.4 13.6 11.1 80 1.8 E 6 7 3 4 - - 0.0
20/12:20am 14.8 14.0 11.1 78 2.0 ENE 6 7 3 4 - - 0.0
20/12:10am 15.0 14.7 11.3 78 2.0 ENE 4 6 2 3 - - 0.0
20/12:00am 15.1 14.7 11.2 77 2.1 ENE 4 4 2 2 - - 0.0
 
Date/Time
EST
Temp
°C
App
Temp
°C
Dew
Point
°C
Rel
Hum
%
Delta-T
°C
Wind Press
QNH
hPa
Press
MSL
hPa
Rain since
9am
mm
Dir  Spd
km/h
Gust
km/h
Spd
kts
Gust
kts
19/11:50pm 15.1 14.7 11.2 77 2.1 ENE 4 4 2 2 - - 0.0
19/11:40pm 15.5 14.8 11.3 76 2.3 ENE 6 6 3 3 - - 0.0
19/11:30pm 16.1 15.3 11.0 72 2.8 NE 6 6 3 3 - - 0.0
19/11:20pm 15.9 14.9 10.9 72 2.7 ENE 7 9 4 5 - - 0.0
19/11:10pm 15.4 13.6 11.0 75 2.4 ENE 11 11 6 6 - - 0.0
19/11:00pm 16.3 15.4 11.5 73 2.6 ENE 7 11 4 6 - - 0.0
19/10:50pm 16.6 15.8 11.1 70 3.0 NE 6 7 3 4 - - 0.0
19/10:40pm 16.5 15.5 10.9 69 3.0 ENE 7 9 4 5 - - 0.0
19/10:30pm 16.2 14.9 11.4 73 2.6 E 9 11 5 6 - - 0.0
19/10:20pm 16.9 15.3 11.5 70 3.0 ENE 11 11 6 6 - - 0.0
19/10:10pm 17.3 15.6 11.3 68 3.3 ENE 11 11 6 6 - - 0.0
19/10:00pm 17.3 15.2 11.3 68 3.3 ENE 13 13 7 7 - - 0.0
19/09:50pm 17.3 15.3 11.4 68 3.2 ENE 13 15 7 8 - - 0.0
19/09:40pm 17.6 15.6 11.5 67 3.4 ENE 13 15 7 8 - - 0.0
19/09:30pm 18.1 15.7 11.5 65 3.7 ENE 15 17 8 9 - - 0.0
19/09:20pm 18.4 15.6 11.3 63 3.9 ENE 17 19 9 10 - - 0.0
19/09:10pm 18.7 15.9 11.2 61 4.1 ENE 17 20 9 11 - - 0.0
19/09:00pm 19.0 15.8 11.2 60 4.3 ENE 19 22 10 12 - - 0.0
19/08:50pm 19.3 15.8 11.0 58 4.6 ENE 20 22 11 12 - - 0.0
19/08:40pm 19.6 15.5 11.4 59 4.6 ENE 24 28 13 15 - - 0.0
19/08:30pm 19.7 16.2 11.0 57 4.8 ENE 20 28 11 15 - - 0.0
19/08:20pm 19.9 16.2 11.5 58 4.7 ENE 22 28 12 15 - - 0.0
19/08:10pm 19.9 17.1 11.5 58 4.7 ENE 17 19 9 10 - - 0.0
19/08:00pm 20.1 17.7 11.5 57 4.8 ENE 15 17 8 9 - - 0.0
19/07:50pm 20.3 17.9 11.4 56 5.0 ENE 15 19 8 10 - - 0.0
19/07:40pm 20.4 17.2 11.1 55 5.2 ENE 19 26 10 14 - - 0.0
19/07:30pm 20.3 17.5 11.2 56 5.1 ENE 17 20 9 11 - - 0.0
19/07:20pm 20.4 17.1 11.5 56 5.0 E 20 24 11 13 - - 0.0
19/07:10pm 20.5 16.3 11.1 54 5.2 E 24 26 13 14 - - 0.0
19/07:00pm 20.6 16.0 10.9 53 5.4 ENE 26 28 14 15 - - 0.0
19/06:50pm 20.7 16.1 10.9 53 5.4 ENE 26 28 14 15 - - 0.0
19/06:40pm 20.9 17.1 11.2 54 5.4 ENE 22 22 12 12 - - 0.0
19/06:30pm 21.0 17.6 11.3 54 5.4 ENE 20 22 11 12 - - 0.0
19/06:20pm 21.3 18.2 11.5 53 5.5 E 19 22 10 12 - - 0.0
19/06:10pm 21.9 17.4 11.5 51 5.9 E 26 30 14 16 - - 0.0
19/06:00pm 22.2 18.1 11.3 50 6.1 E 24 30 13 16 - - 0.0
19/05:50pm 22.5 19.2 11.5 49 6.2 E 20 24 11 13 - - 0.0
19/05:40pm 22.6 18.8 11.2 48 6.4 E 22 28 12 15 - - 0.0
19/05:30pm 23.1 18.0 10.6 45 7.0 E 28 32 15 17 - - 0.0
19/05:20pm 23.4 18.4 11.0 45 7.0 E 28 30 15 16 - - 0.0
19/05:10pm 23.1 17.7 10.8 45 6.9 E 30 35 16 19 - - 0.0
19/05:00pm 23.3 18.6 10.5 44 7.2 E 26 33 14 18 - - 0.0
19/04:50pm 23.7 18.4 11.2 45 7.1 E 30 33 16 18 - - 0.0
19/04:40pm 24.4 19.9 11.4 44 7.4 E 26 32 14 17 - - 0.0
19/04:30pm 25.1 20.5 11.0 41 8.0 E 26 30 14 16 - - 0.0
19/04:20pm 24.2 19.9 10.7 42 7.6 E 24 30 13 16 - - 0.0
19/04:10pm 24.8 20.9 10.8 41 7.9 ENE 22 32 12 17 - - 0.0
19/04:00pm 25.5 21.8 9.5 36 8.9 E 19 22 10 12 - - 0.0
19/03:50pm 25.8 23.8 10.2 37 8.8 ENE 11 17 6 9 - - 0.0
19/03:40pm 25.7 23.4 7.5 31 9.8 ENE 9 13 5 7 - - 0.0
19/03:30pm 25.7 23.0 7.3 31 9.8 ENE 11 13 6 7 - - 0.0
19/03:20pm 25.8 23.4 8.5 33 9.5 ENE 11 15 6 8 - - 0.0
19/03:10pm 25.6 22.3 8.2 33 9.5 E 15 19 8 10 - - 0.0
19/03:00pm 25.7 22.7 9.2 35 9.1 E 15 20 8 11 - - 0.0
19/02:50pm 25.9 22.8 8.8 34 9.4 E 15 22 8 12 - - 0.0
19/02:40pm 25.5 23.1 9.9 37 8.7 E 13 19 7 10 - - 0.0
19/02:30pm 25.5 22.0 8.8 34 9.2 E 17 24 9 13 - - 0.0
19/02:20pm 25.3 22.4 8.1 33 9.3 ESE 13 15 7 8 - - 0.0
19/02:10pm 25.3 22.1 8.5 34 9.2 E 15 17 8 9 - - 0.0
19/02:00pm 25.4 22.7 9.1 35 9.0 E 13 19 7 10 - - 0.0
19/01:50pm 25.4 23.2 9.3 36 8.9 E 11 19 6 10 - - 0.0
19/01:40pm 25.1 22.5 9.5 37 8.6 ESE 13 15 7 8 - - 0.0
19/01:30pm 25.1 22.6 9.8 38 8.5 E 13 15 7 8 - - 0.0
19/01:20pm 24.8 22.6 10.9 41 7.9 E 13 15 7 8 - - 0.0
19/01:10pm 24.6 21.8 10.1 40 8.1 E 15 17 8 9 - - 0.0
19/01:00pm 24.6 21.7 9.8 39 8.2 E 15 19 8 10 - - 0.0
19/12:50pm 24.4 21.8 10.6 41 7.8 E 15 19 8 10 - - 0.0
19/12:40pm 24.2 21.0 11.4 44 7.3 E 19 20 10 11 - - 0.0
19/12:30pm 24.1 21.1 10.6 42 7.6 ESE 17 22 9 12 - - 0.0
19/12:20pm 24.2 20.5 10.3 41 7.8 E 20 30 11 16 - - 0.0
19/12:10pm 24.6 21.1 10.2 40 8.1 ESE 19 28 10 15 - - 0.0
19/12:00pm 24.9 21.8 10.4 40 8.2 E 17 20 9 11 - - 0.0
19/11:50am 24.8 21.1 10.0 39 8.3 E 20 26 11 14 - - 0.0
19/11:40am 24.7 20.8 9.6 38 8.4 E 20 26 11 14 - - 0.0
19/11:30am 24.4 21.2 11.2 43 7.5 ESE 19 26 10 14 - - 0.0
19/11:20am 24.2 20.9 10.9 43 7.5 E 19 22 10 12 - - 0.0
19/11:10am 23.8 19.9 10.8 44 7.3 E 22 24 12 13 - - 0.0
19/11:00am 24.0 20.1 10.7 43 7.5 E 22 26 12 14 - - 0.0
19/10:50am 23.8 19.8 10.3 42 7.5 E 22 28 12 15 - - 0.0
19/10:40am 23.4 20.0 11.2 46 6.9 ESE 20 22 11 12 - - 0.0
19/10:30am 23.4 20.2 11.8 48 6.6 E 20 26 11 14 - - 0.0
19/10:20am 23.5 19.8 10.3 43 7.4 ENE 20 28 11 15 - - 0.0
19/10:10am 23.1 18.1 10.9 46 6.9 E 28 33 15 18 - - 0.0
19/10:00am 23.1 19.0 11.5 48 6.6 E 24 26 13 14 - - 0.0
19/09:50am 23.2 20.8 11.5 47 6.6 ENE 15 19 8 10 - - 0.0
19/09:40am 23.4 20.7 11.6 47 6.7 NE 17 24 9 13 - - 0.0
19/09:30am 23.0 19.8 11.4 48 6.6 ENE 19 24 10 13 - - 0.0
19/09:20am 22.8 19.1 11.6 49 6.4 ENE 22 26 12 14 - - 0.0
19/09:10am 22.5 19.7 11.3 49 6.3 ENE 17 24 9 13 - - 0.0
19/09:00am 22.0 17.9 11.4 51 6.0 ENE 24 32 13 17 - - 6.4
19/08:50am 21.8 18.0 11.3 51 5.9 ENE 22 26 12 14 - - 6.4
19/08:40am 21.6 18.8 11.5 52 5.7 ENE 17 24 9 13 - - 6.4
19/08:30am 21.2 17.9 11.7 54 5.4 ENE 20 24 11 13 - - 6.4
19/08:20am 21.1 17.6 12.1 56 5.1 ENE 22 24 12 13 - - 6.4
19/08:10am 21.2 17.2 11.9 55 5.3 ENE 24 28 13 15 - - 6.4
19/08:00am 21.0 17.3 11.6 55 5.3 E 22 26 12 14 - - 6.4
19/07:50am 21.1 17.1 11.8 55 5.3 ENE 24 28 13 15 - - 6.4
19/07:40am 21.0 19.8 12.9 60 4.7 ENE 11 17 6 9 - - 6.4
19/07:30am 20.1 18.5 12.9 63 4.1 ENE 13 19 7 10 - - 6.4
19/07:20am 19.7 18.2 13.0 65 3.8 ENE 13 15 7 8 - - 6.4
19/07:10am 19.6 19.6 13.7 68 3.4 ENE 6 11 3 6 - - 6.4
19/07:00am 18.9 18.8 13.2 69 3.3 ENE 6 7 3 4 - - 6.4
19/06:50am 18.6 18.6 13.5 72 2.9 NNE 6 6 3 3 - - 6.4
19/06:40am 17.9 18.2 13.5 75 2.5 N 4 4 2 2 - - 6.4
19/06:30am 17.1 17.8 13.3 78 2.2 NW 2 4 1 2 - - 6.4
19/06:20am 16.1 16.4 13.4 84 1.5 NNW 4 6 2 3 - - 6.4
19/06:10am 15.7 16.0 13.4 86 1.3 NW 4 6 2 3 - - 6.4
19/06:00am 15.0 15.7 13.5 91 0.8 W 2 4 1 2 - - 6.4
19/05:50am 14.4 15.4 13.2 92 0.7 CALM 0 2 0 1 - - 6.4
19/05:40am 13.7 14.2 12.9 95 0.4 NW 2 4 1 2 - - 6.4
19/05:30am 13.1 13.9 12.4 95 0.4 CALM 0 0 0 0 - - 6.4
19/05:20am 12.4 13.0 11.9 97 0.3 CALM 0 0 0 0 - - 6.4
19/05:10am 11.9 12.3 11.4 97 0.3 CALM 0 0 0 0 - - 6.4
19/05:00am 12.0 12.5 11.5 97 0.3 CALM 0 2 0 1 - - 6.4
19/04:50am 12.2 12.4 11.7 97 0.3 NE 2 4 1 2 - - 6.4
19/04:40am 12.3 12.5 11.9 97 0.2 N 2 2 1 1 - - 6.4
19/04:30am 12.3 12.9 11.9 97 0.2 CALM 0 0 0 0 - - 6.4
19/04:20am 12.3 12.1 11.8 97 0.3 ESE 4 4 2 2 - - 6.4
19/04:10am 12.5 12.7 12.0 97 0.3 ESE 2 4 1 2 - - 6.4
19/04:00am 12.5 13.1 12.0 97 0.3 CALM 0 2 0 1 - - 6.4
19/03:50am 12.6 13.3 12.1 97 0.3 CALM 0 2 0 1 - - 6.4
19/03:40am 12.5 13.1 12.0 97 0.3 CALM 0 0 0 0 - - 6.4
19/03:30am 12.5 13.1 12.0 97 0.3 CALM 0 0 0 0 - - 6.4
19/03:20am 12.6 12.8 11.9 95 0.4 NNE 2 4 1 2 - - 6.4
19/03:10am 12.6 12.8 12.0 96 0.3 NNE 2 4 1 2 - - 6.4
19/03:00am 12.9 13.2 12.1 95 0.4 N 2 6 1 3 - - 6.4
19/02:50am 12.9 12.9 12.3 96 0.3 NNW 4 4 2 2 - - 6.4
19/02:40am 12.9 12.9 12.3 96 0.3 NNW 4 4 2 2 - - 6.4
19/02:30am 13.1 13.5 12.5 96 0.3 ENE 2 4 1 2 - - 6.4
19/02:20am 13.0 13.0 12.4 96 0.3 SE 4 4 2 2 - - 6.4
19/02:10am 12.9 12.8 12.2 95 0.4 SE 4 6 2 3 - - 6.4
19/02:00am 13.0 12.5 12.1 94 0.5 ESE 6 7 3 4 - - 6.4
19/01:50am 13.4 13.0 12.5 94 0.5 E 6 6 3 3 - - 6.4
19/01:40am 13.4 13.8 12.5 94 0.5 E 2 6 1 3 - - 6.4
19/01:30am 13.6 14.4 12.6 94 0.6 CALM 0 2 0 1 - - 6.4
19/01:20am 13.8 14.6 12.5 92 0.7 CALM 0 2 0 1 - - 6.4
19/01:10am 13.9 14.3 12.6 92 0.7 NW 2 4 1 2 - - 6.4
19/01:00am 13.9 14.7 12.5 91 0.8 CALM 0 0 0 0 - - 6.4
19/12:50am 13.9 14.7 12.5 91 0.8 CALM 0 2 0 1 - - 6.4
19/12:40am 14.0 13.6 12.3 89 0.9 ENE 6 7 3 4 - - 6.4
19/12:30am 14.1 13.1 12.3 89 1.0 E 9 9 5 5 - - 6.4
19/12:20am 14.3 13.7 12.4 88 1.0 E 7 9 4 5 - - 6.4
19/12:10am 14.7 14.7 12.4 86 1.3 ENE 4 4 2 2 - - 6.4
19/12:00am 14.8 14.8 12.5 86 1.3 NE 4 6 2 3 - - 6.4
 
Date/Time
EST
Temp
°C
App
Temp
°C
Dew
Point
°C
Rel
Hum
%
Delta-T
°C
Wind Press
QNH
hPa
Press
MSL
hPa
Rain since
9am
mm
Dir  Spd
km/h
Gust
km/h
Spd
kts
Gust
kts
18/11:50pm 14.7 14.7 12.5 87 1.2 NE 4 6 2 3 - - 6.4
18/11:40pm 14.4 14.0 12.4 88 1.1 ENE 6 7 3 4 - - 6.4
18/11:30pm 14.3 13.8 12.5 89 1.0 ENE 7 7 4 4 - - 6.4
18/11:20pm 14.8 14.5 12.6 87 1.2 ENE 6 7 3 4 - - 6.4
18/11:10pm 15.0 14.7 12.6 85 1.3 ENE 6 7 3 4 - - 6.4
18/11:00pm 14.7 13.7 12.4 86 1.3 ENE 9 9 5 5 - - 6.4
18/10:50pm 14.7 14.2 12.6 87 1.2 ENE 7 7 4 4 - - 6.4
18/10:40pm 14.9 14.4 12.7 87 1.2 ENE 7 7 4 4 - - 6.4
18/10:30pm 15.4 14.9 12.8 84 1.5 ENE 7 7 4 4 - - 6.4
18/10:20pm 15.4 15.1 12.6 83 1.6 ENE 6 7 3 4 - - 6.4
18/10:10pm 15.3 14.5 12.9 85 1.3 ENE 9 9 5 5 - - 6.4
18/10:00pm 15.6 14.8 12.9 84 1.5 ENE 9 9 5 5 - - 6.4
18/09:50pm 15.8 15.4 12.9 83 1.6 ENE 7 9 4 5 - - 6.4
18/09:40pm 16.2 15.4 13.0 81 1.8 ENE 9 9 5 5 - - 6.4
18/09:30pm 16.4 15.6 12.9 80 2.0 ENE 9 9 5 5 - - 6.4
18/09:20pm 16.7 15.9 13.0 79 2.1 ENE 9 13 5 7 - - 6.4
18/09:10pm 16.8 14.9 12.9 78 2.2 ENE 15 19 8 10 - - 6.4
18/09:00pm 17.1 15.2 13.1 77 2.3 ENE 15 19 8 10 - - 6.4
18/08:50pm 17.3 15.8 13.0 76 2.4 ENE 13 17 7 9 - - 6.4
18/08:40pm 17.5 15.6 13.0 75 2.6 ENE 15 19 8 10 - - 6.4
18/08:30pm 17.6 16.0 12.9 74 2.7 ENE 13 17 7 9 - - 6.4
18/08:20pm 17.7 15.9 13.2 75 2.6 ENE 15 19 8 10 - - 6.4
18/08:10pm 17.8 15.2 13.1 74 2.7 ENE 19 20 10 11 - - 6.4
18/08:00pm 17.8 15.2 13.1 74 2.7 ENE 19 22 10 12 - - 6.4
18/07:50pm 17.8 13.9 13.4 75 2.5 ENE 26 30 14 16 - - 6.4
18/07:40pm 18.0 14.1 13.4 74 2.6 ENE 26 33 14 18 - - 6.4
18/07:30pm 18.2 14.8 13.7 75 2.6 ENE 24 30 13 16 - - 6.4
18/07:20pm 18.3 15.4 14.1 76 2.4 ENE 22 24 12 13 - - 6.4
18/07:10pm 18.5 16.2 14.2 76 2.5 ENE 19 20 10 11 - - 6.4
18/07:00pm 18.5 16.9 13.9 74 2.7 ENE 15 20 8 11 - - 6.4
18/06:50pm 18.5 16.9 13.8 74 2.7 ENE 15 19 8 10 - - 6.4
18/06:40pm 18.6 17.1 14.2 75 2.6 ENE 15 17 8 9 - - 6.4
18/06:30pm 18.6 17.5 14.3 76 2.5 ENE 13 17 7 9 - - 6.4
18/06:20pm 18.7 17.6 14.4 76 2.5 ENE 13 15 7 8 - - 6.4
18/06:10pm 18.8 17.6 13.9 73 2.8 ENE 13 17 7 9 - - 6.4
18/06:00pm 18.9 17.5 14.5 75 2.6 ENE 15 22 8 12 - - 6.4
18/05:50pm 19.0 16.9 15.1 78 2.3 ENE 20 26 11 14 - - 6.4
18/05:40pm 19.1 17.5 14.9 76 2.5 ENE 17 20 9 11 - - 6.4
18/05:30pm 18.8 17.4 15.5 81 2.0 ENE 17 19 9 10 - - 6.4
18/05:20pm 18.7 18.1 15.6 82 1.9 E 13 17 7 9 - - 6.4
18/05:10pm 18.7 18.2 16.0 84 1.6 E 13 17 7 9 - - 6.4
18/05:00pm 18.6 17.7 15.8 84 1.7 ENE 15 17 8 9 - - 6.2
18/04:50pm 18.2 18.1 16.1 87 1.3 E 11 13 6 7 - - 6.2
18/04:40pm 17.9 17.4 15.9 88 1.2 ESE 13 17 7 9 - - 6.2
18/04:30pm 17.7 15.9 15.6 87 1.2 ESE 19 20 10 11 - - 6.0
18/04:20pm 17.4 15.5 15.7 90 1.0 E 20 24 11 13 - - 6.0
18/04:10pm 17.2 13.7 15.4 89 1.1 E 28 33 15 18 - - 6.0
18/04:00pm 17.5 14.0 15.5 88 1.2 ENE 28 39 15 21 - - 6.0
18/03:50pm 20.2 20.5 17.0 82 2.0 ESE 11 15 6 8 - - 3.4
18/03:40pm 20.5 20.3 16.8 79 2.3 ENE 13 17 7 9 - - 3.4
18/03:30pm 20.7 21.1 17.3 81 2.1 ENE 11 17 6 9 - - 3.4
18/03:20pm 20.7 21.0 16.1 75 2.8 ENE 9 13 5 7 - - 3.4
18/03:10pm 20.7 20.6 16.0 74 2.9 ENE 11 15 6 8 - - 3.4
18/03:00pm 20.8 21.4 15.8 73 3.0 ENE 7 11 4 6 - - 3.4
18/02:50pm 20.8 21.5 15.7 72 3.1 NE 6 7 3 4 - - 3.4
18/02:40pm 20.5 21.8 16.1 76 2.7 NE 4 6 2 3 - - 3.4
18/02:30pm 20.3 22.2 16.8 80 2.1 NNE 2 4 1 2 - - 3.4
18/02:20pm 19.9 21.1 15.9 78 2.4 NNE 4 6 2 3 - - 3.4
18/02:10pm 19.6 21.0 16.3 81 2.0 NNE 4 6 2 3 - - 3.4
18/02:00pm 19.3 21.1 16.5 84 1.7 NE 2 4 1 2 - - 3.4
18/01:50pm 19.3 20.8 16.7 85 1.6 NNE 4 6 2 3 - - 3.4
18/01:40pm 19.1 20.5 16.5 85 1.6 NNE 4 7 2 4 - - 3.2
18/01:30pm 19.1 20.2 16.6 85 1.5 NNE 6 7 3 4 - - 3.0
18/01:20pm 19.0 19.5 16.6 86 1.5 NNE 9 13 5 7 - - 2.8
18/01:10pm 19.3 19.9 16.8 85 1.5 NNE 9 11 5 6 - - 2.6
18/01:00pm 19.4 20.9 16.7 84 1.6 N 4 6 2 3 - - 2.2
18/12:50pm 19.2 20.4 15.9 81 2.0 NNE 4 4 2 2 - - 2.0
18/12:40pm 19.0 19.8 15.9 82 1.9 NNE 6 9 3 5 - - 1.8
18/12:30pm 19.7 20.6 16.2 80 2.1 NE 6 13 3 7 - - 1.4
18/12:20pm 20.3 21.1 16.4 78 2.4 NE 7 9 4 5 - - 0.4
18/12:10pm 21.6 22.0 16.4 72 3.2 N 9 15 5 8 - - 0.2
18/12:00pm 23.1 22.6 12.2 50 6.3 NW 6 6 3 3 - - 0.0
18/11:50am 23.1 22.4 11.4 47 6.6 NW 6 9 3 5 - - 0.0
18/11:40am 23.0 22.2 11.2 47 6.7 NNW 6 9 3 5 - - 0.0
18/11:30am 22.8 21.5 11.1 47 6.6 NE 9 11 5 6 - - 0.0
18/11:20am 22.7 21.4 11.1 48 6.5 ENE 9 13 5 7 - - 0.0
18/11:10am 22.8 21.0 10.9 47 6.7 ENE 11 13 6 7 - - 0.0
18/11:00am 22.9 21.8 10.7 46 6.8 NE 7 9 4 5 - - 0.0
18/10:50am 23.1 22.4 11.4 47 6.6 NNE 6 11 3 6 - - 0.0
18/10:40am 23.3 22.0 11.1 46 6.9 NNE 9 11 5 6 - - 0.0
18/10:30am 23.2 22.0 10.4 44 7.1 NNE 7 9 4 5 - - 0.0
18/10:20am 22.7 22.0 11.3 48 6.4 NNE 6 9 3 5 - - 0.0
18/10:10am 22.4 21.1 11.4 49 6.2 NE 9 11 5 6 - - 0.0
18/10:00am 22.2 21.5 11.5 50 6.0 NE 6 11 3 6 - - 0.0
18/09:50am 22.1 20.5 11.6 51 5.9 ENE 11 19 6 10 - - 0.0
18/09:40am 22.0 19.9 11.0 49 6.2 ENE 13 17 7 9 - - 0.0
18/09:30am 21.7 20.9 11.8 53 5.6 ENE 7 11 4 6 - - 0.0
18/09:20am 21.6 20.5 11.8 53 5.6 ENE 9 11 5 6 - - 0.0
18/09:10am 21.6 20.5 12.1 54 5.4 ENE 9 15 5 8 - - 0.0
18/09:00am 21.6 21.0 12.2 55 5.4 ENE 7 11 4 6 - - 0.0
18/08:50am 21.5 20.8 12.1 55 5.4 NE 7 9 4 5 - - 0.0
18/08:40am 21.4 20.0 12.2 55 5.2 NE 11 17 6 9 - - 0.0
18/08:30am 21.3 20.3 12.4 57 5.1 NE 9 11 5 6 - - 0.0
18/08:20am 21.2 20.6 12.3 57 5.1 NE 7 11 4 6 - - 0.0
18/08:10am 20.8 19.4 12.1 57 4.9 ENE 11 17 6 9 - - 0.0
18/08:00am 20.6 18.5 12.5 59 4.6 ENE 15 17 8 9 - - 0.0
18/07:50am 20.4 18.4 12.7 61 4.4 ENE 15 20 8 11 - - 0.0
18/07:40am 20.2 19.0 12.8 62 4.2 ENE 11 15 6 8 - - 0.0
18/07:30am 20.1 18.6 13.0 63 4.1 ENE 13 17 7 9 - - 0.0
18/07:20am 20.0 19.7 13.2 65 3.9 NE 7 9 4 5 - - 0.0
18/07:10am 19.4 19.0 12.9 66 3.7 NE 7 9 4 5 - - 0.0
18/07:00am 19.1 18.2 12.7 66 3.6 ENE 9 13 5 7 - - 0.0
18/06:50am 18.8 17.7 13.0 69 3.3 ENE 11 13 6 7 - - 0.0
18/06:40am 18.7 17.6 13.0 69 3.3 ENE 11 15 6 8 - - 0.0
18/06:30am 18.6 17.4 12.8 69 3.3 ENE 11 13 6 7 - - 0.0
18/06:20am 18.6 17.8 12.9 69 3.2 ENE 9 13 5 7 - - 0.0
18/06:10am 18.4 17.7 13.1 71 3.0 E 9 11 5 6 - - 0.0
18/06:00am 18.3 17.9 13.1 71 3.0 E 7 9 4 5 - - 0.0
18/05:50am 18.0 17.2 12.9 72 2.9 E 9 11 5 6 - - 0.0
18/05:40am 17.8 16.6 12.9 73 2.8 E 11 11 6 6 - - 0.0
18/05:30am 17.8 16.6 12.8 72 2.8 E 11 13 6 7 - - 0.0
18/05:20am 17.9 16.7 12.9 72 2.8 E 11 15 6 8 - - 0.0
18/05:10am 18.2 17.0 12.8 71 3.1 ENE 11 15 6 8 - - 0.0
18/05:00am 18.2 17.3 12.7 70 3.1 NE 9 13 5 7 - - 0.0
18/04:50am 18.2 17.0 12.7 70 3.1 ENE 11 15 6 8 - - 0.0
18/04:40am 18.2 17.0 12.8 71 3.1 ENE 11 15 6 8 - - 0.0
18/04:30am 18.3 17.4 12.7 70 3.2 ENE 9 13 5 7 - - 0.0
18/04:20am 18.3 17.4 12.6 69 3.2 NE 9 11 5 6 - - 0.0
18/04:10am 18.3 17.8 12.7 70 3.2 NE 7 9 4 5 - - 0.0
18/04:00am 18.4 17.6 12.8 70 3.2 NE 9 11 5 6 - - 0.0
18/03:50am 18.5 18.0 12.7 69 3.3 NE 7 9 4 5 - - 0.0
18/03:40am 18.5 18.0 12.8 69 3.2 NE 7 7 4 4 - - 0.0
18/03:30am 18.6 18.1 12.7 68 3.3 NE 7 9 4 5 - - 0.0
18/03:20am 18.6 18.1 12.7 68 3.3 NE 7 9 4 5 - - 0.0
18/03:10am 18.6 18.3 12.8 69 3.3 NE 6 7 3 4 - - 0.0
18/03:00am 18.8 18.5 12.7 67 3.5 NE 6 7 3 4 - - 0.0
18/02:50am 18.9 18.4 12.7 67 3.5 NE 7 9 4 5 - - 0.0
18/02:40am 18.9 18.4 12.7 67 3.5 NE 7 7 4 4 - - 0.0
18/02:30am 18.9 18.4 12.6 67 3.6 NE 7 9 4 5 - - 0.0
18/02:20am 19.0 18.1 12.6 66 3.6 NNE 9 11 5 6 - - 0.0
18/02:10am 19.1 18.2 12.6 66 3.7 NNE 9 11 5 6 - - 0.0
18/02:00am 19.1 17.8 12.6 66 3.7 NNE 11 13 6 7 - - 0.0
18/01:50am 19.2 18.3 12.6 65 3.7 NNE 9 11 5 6 - - 0.0
18/01:40am 19.3 18.3 12.4 64 3.9 NNE 9 11 5 6 - - 0.0
18/01:30am 19.4 18.1 12.4 64 4.0 N 11 15 6 8 - - 0.0
18/01:20am 19.4 18.3 12.1 62 4.1 N 9 11 5 6 - - 0.0
18/01:10am 19.5 18.5 12.3 63 4.1 N 9 11 5 6 - - 0.0
18/01:00am 19.6 19.1 12.5 63 4.0 N 7 13 4 7 - - 0.0
18/12:50am 19.7 18.8 12.5 63 4.1 NNW 9 9 5 5 - - 0.0
18/12:40am 19.7 19.2 12.6 63 4.0 NNW 7 7 4 4 - - 0.0
18/12:30am 19.7 19.1 12.3 62 4.2 N 7 11 4 6 - - 0.0
18/12:20am 19.7 19.2 12.5 63 4.1 N 7 11 4 6 - - 0.0
18/12:10am 19.7 18.8 12.5 63 4.1 N 9 13 5 7 - - 0.0
18/12:00am 19.8 18.5 12.5 62 4.2 NNE 11 11 6 6 - - 0.0
 
Date/Time
EST
Temp
°C
App
Temp
°C
Dew
Point
°C
Rel
Hum
%
Delta-T
°C
Wind Press
QNH
hPa
Press
MSL
hPa
Rain since
9am
mm
Dir  Spd
km/h
Gust
km/h
Spd
kts
Gust
kts
17/11:50pm 19.8 18.8 12.4 62 4.2 NNE 9 11 5 6 - - 0.0
17/11:40pm 19.9 18.6 12.4 62 4.3 NNE 11 13 6 7 - - 0.0
17/11:30pm 20.0 19.1 12.5 62 4.3 NNE 9 11 5 6 - - 0.0
17/11:20pm 20.2 19.2 12.4 61 4.4 NE 9 15 5 8 - - 0.0
17/11:10pm 20.3 18.9 12.1 59 4.6 NE 11 15 6 8 - - 0.0
17/11:00pm 20.5 17.9 12.0 58 4.8 NE 17 19 9 10 - - 0.0
17/10:50pm 20.5 18.2 11.9 57 4.9 NE 15 19 8 10 - - 0.0
17/10:40pm 20.6 18.8 12.0 57 4.9 NE 13 17 7 9 - - 0.0
17/10:30pm 20.7 18.8 11.9 57 5.0 NE 13 17 7 9 - - 0.0
17/10:20pm 20.8 19.3 11.9 56 5.0 NE 11 17 6 9 - - 0.0
17/10:10pm 20.9 18.6 11.7 55 5.2 NE 15 19 8 10 - - 0.0
17/10:00pm 21.0 18.7 11.6 55 5.3 ENE 15 19 8 10 - - 0.0
17/09:50pm 21.1 18.8 11.6 54 5.4 ENE 15 19 8 10 - - 0.0
17/09:40pm 21.2 18.4 11.5 54 5.5 ENE 17 20 9 11 - - 0.0
17/09:30pm 21.2 18.4 11.3 53 5.5 ENE 17 22 9 12 - - 0.0
17/09:20pm 21.4 18.5 11.1 52 5.8 ENE 17 20 9 11 - - 0.0
17/09:10pm 21.5 19.3 10.9 51 5.9 ENE 13 19 7 10 - - 0.0
17/09:00pm 21.6 19.1 10.9 50 6.0 ENE 15 17 8 9 - - 0.0
17/08:50pm 21.7 18.7 10.7 49 6.1 ENE 17 19 9 10 - - 0.0
17/08:40pm 21.8 18.4 10.6 49 6.2 ENE 19 24 10 13 - - 0.0
17/08:30pm 21.9 18.5 10.5 48 6.3 ENE 19 26 10 14 - - 0.0
17/08:20pm 22.0 18.0 10.4 47 6.4 ENE 22 28 12 15 - - 0.0
17/08:10pm 22.1 17.3 10.4 47 6.5 ENE 26 30 14 16 - - 0.0
17/08:00pm 22.2 17.5 10.6 47 6.5 ENE 26 30 14 16 - - 0.0
17/07:50pm 22.3 18.9 11.3 49 6.2 ENE 20 26 11 14 - - 0.0
17/07:40pm 22.4 19.3 11.7 50 6.1 ENE 19 24 10 13 - - 0.0
17/07:30pm 22.5 18.9 12.0 51 6.0 ENE 22 26 12 14 - - 0.0
17/07:20pm 22.5 18.5 11.9 51 6.0 ENE 24 32 13 17 - - 0.0
17/07:10pm 22.7 18.0 12.1 51 6.1 ENE 28 32 15 17 - - 0.0
17/07:00pm 23.0 18.3 12.0 50 6.3 ENE 28 33 15 18 - - 0.0
17/06:50pm 23.3 18.6 12.0 49 6.5 ENE 28 33 15 18 - - 0.0
17/06:40pm 23.7 20.5 11.9 47 6.8 ENE 20 26 11 14 - - 0.0
17/06:30pm 23.9 20.3 11.9 47 6.9 ENE 22 26 12 14 - - 0.0
17/06:20pm 24.2 21.2 12.1 46 7.0 ENE 19 24 10 13 - - 0.0
17/06:10pm 24.4 21.8 12.1 46 7.1 NE 17 24 9 13 - - 0.0
17/06:00pm 24.7 21.2 12.2 45 7.2 ENE 22 28 12 15 - - 0.0
17/05:50pm 24.9 21.5 12.4 45 7.3 ENE 22 26 12 14 - - 0.0
17/05:40pm 25.2 22.8 12.6 45 7.4 NE 17 22 9 12 - - 0.0
17/05:30pm 25.3 22.5 12.6 45 7.4 NE 19 22 10 12 - - 0.0
17/05:20pm 25.5 21.4 12.7 45 7.5 ENE 26 30 14 16 - - 0.0
17/05:10pm 25.9 22.6 12.8 44 7.7 ENE 22 30 12 16 - - 0.0
17/05:00pm 26.0 22.3 12.8 44 7.8 ENE 24 32 13 17 - - 0.0
17/04:50pm 26.4 22.7 12.7 42 8.1 ENE 24 32 13 17 - - 0.0
17/04:40pm 26.8 24.7 12.3 40 8.5 NE 15 17 8 9 - - 0.0
17/04:30pm 26.9 24.4 12.4 40 8.5 NE 17 19 9 10 - - 0.0
17/04:20pm 27.2 24.6 12.1 39 8.8 NE 17 26 9 14 - - 0.0
17/04:10pm 27.5 24.5 12.1 38 9.0 ENE 19 22 10 12 - - 0.0
17/04:00pm 27.7 26.0 12.5 39 9.0 NE 13 20 7 11 - - 0.0
17/03:50pm 27.2 24.3 12.4 40 8.7 NE 19 24 10 13 - - 0.0
17/03:40pm 28.2 25.2 12.5 37 9.3 NE 20 26 11 14 - - 0.0
17/03:30pm 28.1 25.7 12.6 38 9.2 NE 17 24 9 13 - - 0.0
17/03:20pm 27.3 24.7 12.0 38 8.9 NE 17 20 9 11 - - 0.0
17/03:10pm 28.1 25.4 13.0 39 9.0 NE 19 24 10 13 - - 0.0
17/03:00pm 28.2 25.7 12.4 37 9.3 NNE 17 22 9 12 - - 0.0
17/02:50pm 27.6 25.2 12.7 39 8.8 NE 17 20 9 11 - - 0.0
17/02:40pm 28.6 26.9 12.3 36 9.6 NE 13 20 7 11 - - 0.0
17/02:30pm 27.6 25.5 12.5 39 8.9 NE 15 19 8 10 - - 0.0
17/02:20pm 27.9 25.8 12.3 38 9.2 NE 15 19 8 10 - - 0.0
17/02:10pm 28.2 25.4 12.7 38 9.2 ENE 19 22 10 12 - - 0.0
17/02:00pm 27.8 25.7 12.5 38 9.0 ENE 15 19 8 10 - - 0.0
17/01:50pm 27.8 26.0 12.2 38 9.2 NE 13 17 7 9 - - 0.0
17/01:40pm 27.1 25.4 12.5 40 8.6 NE 13 17 7 9 - - 0.0
17/01:30pm 26.9 25.2 12.6 41 8.4 NE 13 17 7 9 - - 0.0
17/01:10pm 26.8 25.4 12.3 40 8.5 NE 11 13 6 7 - - 0.0
17/01:00pm 26.8 26.0 12.8 42 8.3 NE 9 17 5 9 - - 0.0
17/12:50pm 27.0 25.6 12.3 40 8.6 NE 11 13 6 7 - - 0.0
17/12:40pm 26.9 25.7 12.8 41 8.3 ENE 11 19 6 10 - - 0.0
17/12:30pm 27.0 25.7 12.6 41 8.5 NNE 11 15 6 8 - - 0.0
17/12:20pm 27.5 26.2 12.6 39 8.8 NNE 11 15 6 8 - - 0.0
17/12:10pm 27.4 26.4 13.3 41 8.4 NE 11 17 6 9 - - 0.0

Other Formats:

Comma delimited format used in spreadsheet applications
http://www.bom.gov.au/fwo/IDQ60801/IDQ60801.99122.axf

JavaScript Object Notation format (JSON) in row-major order
http://www.bom.gov.au/fwo/IDQ60801/IDQ60801.99122.json